createdAt,value
2023-04-06T00:01:43.334Z,-0.89
2023-04-06T00:04:11.123Z,-0.85
2023-04-06T00:06:38.802Z,-0.84
2023-04-06T00:09:06.889Z,-0.87
2023-04-06T00:11:34.711Z,-0.88
2023-04-06T00:14:02.344Z,-0.88
2023-04-06T00:16:31.415Z,-0.90
2023-04-06T00:18:59.061Z,-0.88
2023-04-06T00:21:27.736Z,-0.89
2023-04-06T00:23:55.430Z,-0.89
2023-04-06T00:26:23.052Z,-0.97
2023-04-06T00:28:52.944Z,-1.04
2023-04-06T00:31:20.568Z,-1.02
2023-04-06T00:33:50.389Z,-1.02
2023-04-06T00:36:17.987Z,-1.05
2023-04-06T00:38:45.647Z,-1.13
2023-04-06T00:41:13.479Z,-1.21
2023-04-06T00:43:41.122Z,-1.23
2023-04-06T00:46:08.727Z,-1.27
2023-04-06T00:48:36.370Z,-1.31
2023-04-06T00:51:05.625Z,-1.27
2023-04-06T00:53:33.254Z,-1.32
2023-04-06T00:56:01.024Z,-1.40
2023-04-06T00:58:28.720Z,-1.40
2023-04-06T01:00:56.486Z,-1.39
2023-04-06T01:03:24.650Z,-1.42
2023-04-06T01:05:56.752Z,-1.50
2023-04-06T01:08:25.852Z,-1.52
2023-04-06T01:10:53.573Z,-1.50
2023-04-06T01:13:21.185Z,-1.52
2023-04-06T01:15:48.912Z,-1.59
2023-04-06T01:18:16.556Z,-1.65
2023-04-06T01:20:44.156Z,-1.61
2023-04-06T01:23:13.137Z,-1.58
2023-04-06T01:25:40.757Z,-1.59
2023-04-06T01:28:08.384Z,-1.58
2023-04-06T01:30:36.094Z,-1.61
2023-04-06T01:33:03.780Z,-1.66
2023-04-06T01:35:32.485Z,-1.66
2023-04-06T01:38:00.696Z,-1.64
2023-04-06T01:40:29.701Z,-1.62
2023-04-06T01:42:57.372Z,-1.63
2023-04-06T01:45:26.332Z,-1.65
2023-04-06T01:47:54.079Z,-1.68
2023-04-06T01:50:21.778Z,-1.68
2023-04-06T01:52:49.370Z,-1.69
2023-04-06T01:55:17.088Z,-1.71
2023-04-06T01:57:46.271Z,-1.70
2023-04-06T02:00:15.429Z,-1.71
2023-04-06T02:02:43.103Z,-1.74
2023-04-06T02:05:11.193Z,-1.76
2023-04-06T02:07:38.796Z,-1.76
2023-04-06T02:10:08.777Z,-1.80
2023-04-06T02:12:36.384Z,-1.83
2023-04-06T02:15:05.872Z,-1.86
2023-04-06T02:17:33.522Z,-1.88
2023-04-06T02:20:01.139Z,-1.91
2023-04-06T02:22:28.744Z,-1.93
2023-04-06T02:24:56.407Z,-1.93
2023-04-06T02:27:24.069Z,-1.92
2023-04-06T02:29:51.663Z,-1.92
2023-04-06T02:32:20.767Z,-1.94
2023-04-06T02:34:48.419Z,-2.06
2023-04-06T02:37:16.082Z,-2.09
2023-04-06T02:39:43.684Z,-2.09
2023-04-06T02:42:11.271Z,-2.06
2023-04-06T02:44:38.935Z,-2.02
2023-04-06T02:47:06.595Z,-2.03
2023-04-06T02:49:35.604Z,-2.03
2023-04-06T02:52:03.662Z,-2.03
2023-04-06T02:54:31.323Z,-2.07
2023-04-06T02:56:58.899Z,-2.09
2023-04-06T02:59:26.653Z,-2.10
2023-04-06T03:01:54.364Z,-2.14
2023-04-06T03:04:23.798Z,-2.16
2023-04-06T03:06:52.775Z,-2.21
2023-04-06T03:09:20.796Z,-2.25
2023-04-06T03:11:48.388Z,-2.29
2023-04-06T03:14:18.270Z,-2.36
2023-04-06T03:16:45.967Z,-2.42
2023-04-06T03:19:13.600Z,-2.44
2023-04-06T03:21:41.224Z,-2.47
2023-04-06T03:24:10.590Z,-2.50
2023-04-06T03:26:38.243Z,-2.51
2023-04-06T03:29:06.138Z,-2.48
2023-04-06T03:31:33.980Z,-2.43
2023-04-06T03:34:01.658Z,-2.43
2023-04-06T03:36:29.314Z,-2.47
2023-04-06T03:38:56.917Z,-2.49
2023-04-06T03:41:26.004Z,-2.50
2023-04-06T03:43:53.645Z,-2.51
2023-04-06T03:46:21.261Z,-2.52
2023-04-06T03:48:50.736Z,-2.51
2023-04-06T03:51:18.303Z,-2.52
2023-04-06T03:53:45.983Z,-2.54
2023-04-06T03:56:13.545Z,-2.52
2023-04-06T03:58:42.489Z,-2.51
2023-04-06T04:01:10.321Z,-2.53
2023-04-06T04:03:38.088Z,-2.51
2023-04-06T04:06:05.781Z,-2.49
2023-04-06T04:08:33.428Z,-2.50
2023-04-06T04:11:01.042Z,-2.59
2023-04-06T04:13:28.694Z,-2.68
2023-04-06T04:15:57.639Z,-2.75
2023-04-06T04:18:26.060Z,-2.80
2023-04-06T04:20:53.662Z,-2.84
2023-04-06T04:23:21.304Z,-2.83
2023-04-06T04:25:48.929Z,-2.85
2023-04-06T04:28:16.558Z,-2.89
2023-04-06T04:30:44.173Z,-2.90
2023-04-06T04:33:13.205Z,-2.89
2023-04-06T04:35:40.889Z,-2.86
2023-04-06T04:38:08.566Z,-2.81
2023-04-06T04:40:36.203Z,-2.81
2023-04-06T04:43:03.893Z,-2.81
2023-04-06T04:45:31.583Z,-2.82
2023-04-06T04:47:59.287Z,-2.80
2023-04-06T04:50:28.439Z,-2.76
2023-04-06T04:52:56.067Z,-2.74
2023-04-06T04:55:23.720Z,-2.73
2023-04-06T04:57:51.401Z,-2.74
2023-04-06T05:00:19.378Z,-2.73
2023-04-06T05:02:47.072Z,-2.68
2023-04-06T05:05:14.758Z,-2.65
2023-04-06T05:07:43.781Z,-2.60
2023-04-06T05:10:11.917Z,-2.54
2023-04-06T05:12:39.634Z,-2.47
2023-04-06T05:15:08.151Z,-2.41
2023-04-06T05:17:36.221Z,-2.35
2023-04-06T05:20:03.944Z,-2.32
2023-04-06T05:22:31.644Z,-2.29
2023-04-06T05:25:00.679Z,-2.23
2023-04-06T05:27:28.334Z,-2.18
2023-04-06T05:29:57.791Z,-2.10
2023-04-06T05:32:25.853Z,-2.01
2023-04-06T05:34:53.770Z,-1.91
2023-04-06T05:37:21.391Z,-1.78
2023-04-06T05:39:49.054Z,-1.65
2023-04-06T05:42:18.440Z,-1.53
2023-04-06T05:44:46.096Z,-1.40
2023-04-06T05:47:13.656Z,-1.27
2023-04-06T05:49:41.396Z,-1.14
2023-04-06T05:52:09.004Z,-1.00
2023-04-06T05:54:37.331Z,-0.87
2023-04-06T05:57:05.350Z,-0.78
2023-04-06T05:59:34.399Z,-0.63
2023-04-06T06:02:02.734Z,-0.47
2023-04-06T06:04:30.539Z,-0.27
2023-04-06T06:06:58.567Z,-0.18
2023-04-06T06:09:26.272Z,-0.02
2023-04-06T06:11:54.165Z,0.16
2023-04-06T06:14:22.841Z,0.34
2023-04-06T06:16:51.894Z,0.54
2023-04-06T06:19:19.545Z,0.71
2023-04-06T06:21:47.282Z,0.87
2023-04-06T06:24:14.968Z,0.91
2023-04-06T06:26:42.598Z,1.05
2023-04-06T06:29:10.326Z,1.22
2023-04-06T06:31:38.142Z,1.44
2023-04-06T06:34:07.161Z,1.65
2023-04-06T06:36:36.280Z,1.76
2023-04-06T06:39:04.644Z,1.98
2023-04-06T06:41:32.320Z,2.09
2023-04-06T06:43:59.953Z,2.19
2023-04-06T06:46:27.597Z,2.34
2023-04-06T06:48:55.353Z,2.44
2023-04-06T06:51:24.370Z,2.69
2023-04-06T06:53:52.031Z,2.96
2023-04-06T06:56:19.795Z,3.21
2023-04-06T06:58:47.581Z,3.44
2023-04-06T07:01:15.434Z,3.53
2023-04-06T07:03:43.254Z,3.81
2023-04-06T07:06:11.071Z,3.98
2023-04-06T07:08:40.186Z,3.95
2023-04-06T07:11:07.829Z,3.95
2023-04-06T07:13:35.617Z,3.97
2023-04-06T07:16:03.260Z,3.92
2023-04-06T07:18:30.987Z,3.92
2023-04-06T07:20:58.654Z,3.90
2023-04-06T07:23:26.353Z,4.05
2023-04-06T07:25:55.705Z,4.05
2023-04-06T07:28:23.351Z,4.16
2023-04-06T07:30:51.476Z,3.88
2023-04-06T07:33:19.143Z,3.94
2023-04-06T07:35:46.776Z,4.33
2023-04-06T07:38:14.573Z,4.81
2023-04-06T07:40:42.268Z,5.09
2023-04-06T07:43:11.328Z,5.16
2023-04-06T07:45:38.993Z,5.17
2023-04-06T07:48:06.880Z,5.11
2023-04-06T07:50:34.517Z,5.22
2023-04-06T07:53:02.188Z,5.32
2023-04-06T07:55:29.910Z,5.50
2023-04-06T07:57:57.578Z,5.88
2023-04-06T08:00:26.596Z,6.12
2023-04-06T08:02:54.361Z,6.43
2023-04-06T08:05:22.286Z,6.61
2023-04-06T08:07:49.978Z,6.79
2023-04-06T08:10:17.750Z,7.08
2023-04-06T08:12:45.413Z,7.40
2023-04-06T08:15:13.087Z,7.50
2023-04-06T08:17:42.127Z,7.62
2023-04-06T08:20:10.443Z,7.55
2023-04-06T08:22:38.025Z,7.95
2023-04-06T08:25:06.488Z,8.02
2023-04-06T08:27:34.166Z,8.28
2023-04-06T08:30:02.654Z,8.59
2023-04-06T08:32:30.263Z,8.84
2023-04-06T08:34:59.582Z,9.10
2023-04-06T08:37:27.448Z,9.34
2023-04-06T08:39:55.086Z,9.18
2023-04-06T08:42:23.696Z,9.34
2023-04-06T08:44:53.324Z,9.15
2023-04-06T08:47:24.553Z,9.38
2023-04-06T08:49:53.096Z,9.51
2023-04-06T08:52:22.073Z,9.31
2023-04-06T08:54:49.747Z,9.74
2023-04-06T08:57:17.671Z,10.07
2023-04-06T08:59:46.196Z,9.98
2023-04-06T09:02:19.111Z,9.81
2023-04-06T09:04:48.201Z,9.94
2023-04-06T09:07:16.517Z,9.74
2023-04-06T09:09:48.825Z,9.70
2023-04-06T09:12:24.815Z,10.04
2023-04-06T09:14:52.521Z,10.32
2023-04-06T09:17:23.704Z,10.24
2023-04-06T09:19:51.697Z,10.43
2023-04-06T09:22:20.125Z,10.71
2023-04-06T09:24:50.489Z,11.11
2023-04-06T09:27:18.129Z,11.19
2023-04-06T09:29:46.248Z,11.32
2023-04-06T09:32:17.606Z,11.41
2023-04-06T09:34:50.881Z,11.44
2023-04-06T09:37:19.895Z,11.12
2023-04-06T09:39:49.546Z,11.20
2023-04-06T09:42:26.782Z,11.48
2023-04-06T09:44:54.476Z,11.66
2023-04-06T09:47:25.201Z,12.05
2023-04-06T09:49:59.507Z,12.34
2023-04-06T09:52:29.189Z,12.47
2023-04-06T09:55:01.888Z,12.55
2023-04-06T09:57:33.814Z,10.66
2023-04-06T10:00:09.160Z,10.82
2023-04-06T10:02:43.683Z,11.57
2023-04-06T10:05:12.893Z,11.79
2023-04-06T10:07:49.770Z,11.45
2023-04-06T10:10:28.661Z,10.97
2023-04-06T10:12:56.756Z,11.71
2023-04-06T10:15:25.263Z,10.46
2023-04-06T10:17:53.373Z,11.28
2023-04-06T10:20:25.045Z,11.52
2023-04-06T10:22:57.872Z,10.30
2023-04-06T10:25:30.966Z,10.61
2023-04-06T10:28:02.561Z,11.28
2023-04-06T10:30:30.728Z,11.60
2023-04-06T10:32:58.495Z,12.09
2023-04-06T10:35:26.581Z,12.48
2023-04-06T10:37:55.741Z,11.84
2023-04-06T10:40:27.534Z,12.21
2023-04-06T10:42:57.827Z,12.78
2023-04-06T10:45:26.690Z,12.85
2023-04-06T10:47:54.935Z,12.85
2023-04-06T10:50:23.797Z,13.22
2023-04-06T10:53:01.448Z,13.34
2023-04-06T10:55:30.018Z,13.40
2023-04-06T10:57:59.025Z,13.14
2023-04-06T11:00:36.072Z,12.26
2023-04-06T11:03:11.012Z,12.34
2023-04-06T11:05:38.697Z,12.72
2023-04-06T11:08:06.711Z,10.81
2023-04-06T11:10:34.316Z,10.64
2023-04-06T11:13:03.499Z,10.78
2023-04-06T11:15:38.102Z,11.44
2023-04-06T11:18:07.132Z,11.86
2023-04-06T11:20:34.857Z,11.52
2023-04-06T11:23:02.929Z,11.19
2023-04-06T11:25:32.343Z,10.93
2023-04-06T11:28:00.115Z,11.09
2023-04-06T11:30:29.157Z,11.49
2023-04-06T11:33:02.726Z,12.03
2023-04-06T11:35:33.659Z,12.67
2023-04-06T11:38:05.049Z,12.78
2023-04-06T11:40:34.182Z,12.72
2023-04-06T11:43:01.824Z,12.68
2023-04-06T11:45:41.722Z,13.23
2023-04-06T11:48:20.103Z,13.78
2023-04-06T11:50:48.802Z,14.00
2023-04-06T11:53:16.465Z,14.18
2023-04-06T11:55:47.701Z,14.15
2023-04-06T11:58:15.977Z,13.19
2023-04-06T12:00:47.381Z,13.33
2023-04-06T12:03:15.554Z,12.37
2023-04-06T12:05:43.308Z,12.25
2023-04-06T12:08:10.931Z,12.10
2023-04-06T12:10:38.559Z,12.26
2023-04-06T12:13:06.386Z,12.25
2023-04-06T12:15:34.367Z,12.69
2023-04-06T12:18:03.521Z,13.17
2023-04-06T12:20:31.236Z,12.94
2023-04-06T12:22:58.842Z,11.92
2023-04-06T12:25:26.456Z,12.31
2023-04-06T12:27:54.104Z,12.19
2023-04-06T12:30:21.876Z,12.34
2023-04-06T12:32:51.296Z,12.97
2023-04-06T12:35:21.926Z,13.54
2023-04-06T12:37:49.541Z,12.91
2023-04-06T12:40:17.330Z,12.58
2023-04-06T12:42:46.649Z,12.81
2023-04-06T12:45:14.366Z,12.92
2023-04-06T12:47:42.050Z,13.65
2023-04-06T12:50:10.368Z,13.85
2023-04-06T12:52:39.426Z,13.41
2023-04-06T12:55:07.965Z,13.06
2023-04-06T12:57:35.789Z,13.48
2023-04-06T13:00:04.713Z,14.02
2023-04-06T13:02:33.618Z,14.37
2023-04-06T13:05:01.339Z,14.69
2023-04-06T13:07:28.957Z,13.57
2023-04-06T13:09:58.193Z,14.19
2023-04-06T13:12:27.044Z,13.98
2023-04-06T13:14:54.676Z,12.77
2023-04-06T13:17:23.612Z,12.83
2023-04-06T13:19:51.447Z,13.00
2023-04-06T13:22:19.086Z,13.09
2023-04-06T13:24:47.231Z,12.52
2023-04-06T13:27:16.197Z,12.91
2023-04-06T13:29:44.100Z,13.18
2023-04-06T13:32:11.948Z,13.23
2023-04-06T13:34:39.624Z,13.12
2023-04-06T13:37:07.325Z,13.32
2023-04-06T13:39:34.994Z,13.69
2023-04-06T13:42:03.948Z,13.45
2023-04-06T13:44:33.803Z,13.18
2023-04-06T13:47:01.388Z,13.61
2023-04-06T13:49:29.050Z,13.98
2023-04-06T13:51:56.740Z,13.97
2023-04-06T13:54:24.429Z,13.52
2023-04-06T13:56:53.508Z,13.32
2023-04-06T13:59:21.143Z,13.60
2023-04-06T14:01:50.337Z,13.75
2023-04-06T14:04:18.044Z,13.60
2023-04-06T14:06:46.889Z,13.25
2023-04-06T14:09:14.519Z,13.38
2023-04-06T14:11:42.210Z,12.96
2023-04-06T14:14:10.748Z,13.02
2023-04-06T14:16:38.389Z,13.14
2023-04-06T14:19:07.412Z,13.23
2023-04-06T14:21:34.995Z,12.66
2023-04-06T14:24:02.764Z,12.34
2023-04-06T14:26:30.389Z,12.23
2023-04-06T14:28:58.073Z,12.54
2023-04-06T14:31:25.735Z,12.75
2023-04-06T14:33:53.418Z,12.56
2023-04-06T14:36:22.511Z,12.82
2023-04-06T14:38:50.197Z,12.61
2023-04-06T14:41:18.640Z,12.94
2023-04-06T14:43:46.785Z,13.17
2023-04-06T14:46:14.907Z,13.40
2023-04-06T14:48:42.562Z,13.37
2023-04-06T14:51:10.204Z,13.23
2023-04-06T14:53:39.294Z,13.36
2023-04-06T14:56:07.634Z,13.36
2023-04-06T14:58:35.388Z,13.19
2023-04-06T15:01:03.727Z,12.10
2023-04-06T15:03:32.127Z,11.98
2023-04-06T15:06:00.324Z,12.22
2023-04-06T15:08:27.986Z,12.40
2023-04-06T15:11:01.130Z,12.19
2023-04-06T15:13:28.785Z,11.55
2023-04-06T15:15:56.601Z,11.75
2023-04-06T15:18:24.248Z,11.91
2023-04-06T15:20:51.942Z,11.61
2023-04-06T15:23:19.782Z,11.65
2023-04-06T15:25:47.387Z,11.62
2023-04-06T15:28:16.465Z,11.65
2023-04-06T15:30:44.147Z,11.77
2023-04-06T15:33:11.892Z,11.93
2023-04-06T15:35:40.629Z,12.02
2023-04-06T15:38:08.717Z,11.84
2023-04-06T15:40:37.207Z,11.99
2023-04-06T15:43:04.892Z,11.85
2023-04-06T15:45:33.848Z,11.95
2023-04-06T15:48:01.560Z,11.46
2023-04-06T15:50:29.445Z,11.50
2023-04-06T15:52:57.100Z,11.47
2023-04-06T15:55:25.035Z,11.47
2023-04-06T15:57:52.743Z,11.38
2023-04-06T16:00:21.250Z,11.36
2023-04-06T16:02:50.437Z,11.12
2023-04-06T16:05:18.189Z,11.01
2023-04-06T16:07:45.831Z,10.92
2023-04-06T16:10:13.517Z,10.91
2023-04-06T16:12:42.460Z,11.00
2023-04-06T16:15:13.745Z,11.17
2023-04-06T16:17:43.273Z,11.11
2023-04-06T16:20:15.672Z,11.15
2023-04-06T16:22:43.497Z,10.92
2023-04-06T16:25:11.863Z,10.81
2023-04-06T16:27:39.507Z,10.72
2023-04-06T16:30:08.624Z,10.74
2023-04-06T16:32:36.364Z,10.64
2023-04-06T16:35:04.216Z,10.55
2023-04-06T16:37:33.628Z,10.44
2023-04-06T16:40:01.421Z,10.47
2023-04-06T16:42:29.063Z,10.42
2023-04-06T16:44:56.882Z,10.33
2023-04-06T16:47:24.751Z,10.30
2023-04-06T16:49:53.580Z,10.33
2023-04-06T16:52:21.302Z,10.40
2023-04-06T16:54:50.872Z,10.40
2023-04-06T16:57:20.528Z,10.35
2023-04-06T16:59:48.176Z,10.28
2023-04-06T17:02:16.294Z,10.15
2023-04-06T17:04:44.288Z,10.17
2023-04-06T17:07:11.955Z,10.16
2023-04-06T17:09:39.555Z,10.10
2023-04-06T17:12:09.158Z,10.04
2023-04-06T17:14:36.833Z,9.96
2023-04-06T17:17:04.506Z,9.92
2023-04-06T17:19:32.367Z,9.89
2023-04-06T17:21:59.972Z,9.84
2023-04-06T17:24:27.585Z,9.80
2023-04-06T17:26:55.171Z,9.75
2023-04-06T17:29:24.150Z,9.68
2023-04-06T17:31:51.773Z,9.64
2023-04-06T17:34:19.446Z,9.53
2023-04-06T17:36:47.073Z,9.40
2023-04-06T17:39:14.725Z,9.33
2023-04-06T17:41:42.601Z,9.31
2023-04-06T17:44:10.243Z,9.20
2023-04-06T17:46:39.238Z,9.13
2023-04-06T17:49:09.349Z,8.93
2023-04-06T17:51:37.106Z,8.90
2023-04-06T17:54:04.851Z,8.76
2023-04-06T17:56:32.494Z,8.48
2023-04-06T17:59:00.132Z,8.34
2023-04-06T18:01:28.001Z,8.27
2023-04-06T18:03:57.178Z,8.30
2023-04-06T18:06:25.794Z,8.11
2023-04-06T18:08:53.926Z,7.97
2023-04-06T18:11:22.066Z,7.81
2023-04-06T18:13:50.085Z,7.70
2023-04-06T18:16:20.336Z,7.78
2023-04-06T18:18:48.293Z,7.84
2023-04-06T18:21:17.602Z,7.84
2023-04-06T18:23:45.529Z,7.74
2023-04-06T18:26:16.778Z,7.60
2023-04-06T18:28:44.545Z,7.39
2023-04-06T18:31:12.214Z,7.19
2023-04-06T18:33:39.941Z,7.02
2023-04-06T18:36:09.708Z,6.94
2023-04-06T18:38:40.364Z,6.90
2023-04-06T18:41:08.061Z,6.84
2023-04-06T18:43:36.936Z,6.82
2023-04-06T18:46:05.158Z,6.79
2023-04-06T18:48:32.810Z,6.73
2023-04-06T18:51:02.002Z,6.67
2023-04-06T18:53:29.921Z,6.67
2023-04-06T18:55:59.641Z,6.48
2023-04-06T18:58:27.641Z,6.32
2023-04-06T19:00:57.328Z,6.19
2023-04-06T19:03:25.222Z,6.02
2023-04-06T19:05:52.900Z,5.72
2023-04-06T19:08:20.810Z,5.62
2023-04-06T19:10:49.341Z,5.68
2023-04-06T19:13:18.356Z,5.69
2023-04-06T19:15:46.258Z,5.70
2023-04-06T19:18:13.901Z,5.72
2023-04-06T19:20:41.501Z,5.79
2023-04-06T19:23:09.375Z,5.81
2023-04-06T19:25:37.039Z,5.60
2023-04-06T19:28:04.839Z,5.45
2023-04-06T19:30:34.162Z,5.34
2023-04-06T19:33:02.746Z,5.27
2023-04-06T19:35:30.923Z,5.20
2023-04-06T19:37:58.542Z,5.16
2023-04-06T19:40:26.201Z,5.12
2023-04-06T19:42:53.814Z,5.08
2023-04-06T19:45:21.447Z,5.04
2023-04-06T19:47:50.463Z,4.89
2023-04-06T19:50:18.099Z,4.94
2023-04-06T19:52:45.736Z,4.99
2023-04-06T19:55:13.345Z,4.97
2023-04-06T19:57:41.090Z,4.94
2023-04-06T20:00:11.006Z,4.94
2023-04-06T20:02:38.728Z,4.90
2023-04-06T20:05:08.505Z,4.97
2023-04-06T20:07:37.801Z,5.01
2023-04-06T20:10:06.995Z,5.02
2023-04-06T20:12:34.619Z,5.02
2023-04-06T20:15:02.233Z,5.02
2023-04-06T20:17:29.843Z,4.96
2023-04-06T20:19:57.435Z,4.77
2023-04-06T20:22:26.408Z,4.72
2023-04-06T20:24:54.089Z,4.74
2023-04-06T20:27:22.140Z,4.75
2023-04-06T20:29:49.762Z,4.75
2023-04-06T20:32:20.646Z,4.71
2023-04-06T20:34:48.756Z,4.72
2023-04-06T20:37:16.605Z,4.74
2023-04-06T20:39:45.616Z,4.68
2023-04-06T20:42:13.338Z,4.59
2023-04-06T20:44:40.995Z,4.55
2023-04-06T20:47:08.972Z,4.52
2023-04-06T20:49:36.756Z,4.50
2023-04-06T20:52:04.416Z,4.43
2023-04-06T20:54:32.052Z,4.49
2023-04-06T20:57:01.797Z,4.49
2023-04-06T20:59:29.739Z,4.45
2023-04-06T21:01:57.425Z,4.41
2023-04-06T21:04:25.241Z,4.42
2023-04-06T21:06:53.080Z,4.50
2023-04-06T21:09:20.749Z,4.56
2023-04-06T21:11:48.368Z,4.56
2023-04-06T21:14:19.491Z,4.61
2023-04-06T21:16:47.991Z,4.60
2023-04-06T21:19:15.685Z,4.62
2023-04-06T21:21:43.462Z,4.68
2023-04-06T21:24:11.101Z,4.73
2023-04-06T21:26:38.691Z,4.75
2023-04-06T21:29:06.323Z,4.77
2023-04-06T21:31:40.994Z,4.74
2023-04-06T21:34:10.011Z,4.73
2023-04-06T21:36:37.911Z,4.66
2023-04-06T21:39:06.084Z,4.42
2023-04-06T21:41:34.113Z,4.36
2023-04-06T21:44:01.829Z,4.40
2023-04-06T21:46:29.745Z,4.29
2023-04-06T21:48:58.845Z,4.34
2023-04-06T21:51:27.490Z,4.37
2023-04-06T21:53:56.393Z,4.42
2023-04-06T21:56:25.645Z,4.47
2023-04-06T21:58:54.221Z,4.47
2023-04-06T22:01:21.859Z,4.47
2023-04-06T22:03:49.797Z,4.42
2023-04-06T22:06:18.994Z,4.45
2023-04-06T22:08:48.027Z,4.43
2023-04-06T22:11:16.164Z,4.47
2023-04-06T22:13:43.797Z,4.47
2023-04-06T22:16:11.493Z,4.50
2023-04-06T22:18:39.474Z,4.46
2023-04-06T22:21:07.373Z,4.37
2023-04-06T22:23:41.918Z,4.39
2023-04-06T22:26:10.610Z,4.38
2023-04-06T22:28:38.693Z,4.34
2023-04-06T22:31:06.437Z,4.30
2023-04-06T22:33:34.088Z,4.26
2023-04-06T22:36:01.746Z,4.25
2023-04-06T22:38:29.449Z,4.23
2023-04-06T22:40:58.404Z,4.23
2023-04-06T22:43:25.997Z,4.26
2023-04-06T22:45:53.591Z,4.32
2023-04-06T22:48:21.300Z,4.35
2023-04-06T22:50:48.954Z,4.37
2023-04-06T22:53:16.538Z,4.35
2023-04-06T22:55:44.403Z,4.37
2023-04-06T22:58:13.397Z,4.36
2023-04-06T23:00:41.195Z,4.35
2023-04-06T23:03:08.989Z,4.36
2023-04-06T23:05:36.699Z,4.35
2023-04-06T23:08:04.330Z,4.33
2023-04-06T23:10:31.987Z,4.37
2023-04-06T23:12:59.587Z,4.41
2023-04-06T23:15:28.624Z,4.46
2023-04-06T23:17:56.265Z,4.48
2023-04-06T23:20:24.112Z,4.52
2023-04-06T23:22:51.714Z,4.55
2023-04-06T23:25:19.454Z,4.59
2023-04-06T23:27:47.090Z,4.63
2023-04-06T23:30:14.801Z,4.61
2023-04-06T23:32:43.967Z,4.62
2023-04-06T23:35:11.910Z,4.61
2023-04-06T23:37:39.632Z,4.61
2023-04-06T23:40:08.706Z,4.57
2023-04-06T23:42:36.442Z,4.58
2023-04-06T23:45:05.178Z,4.60
2023-04-06T23:47:32.865Z,4.58
2023-04-06T23:50:01.894Z,4.61
2023-04-06T23:52:30.579Z,4.63
2023-04-06T23:54:58.261Z,4.62
2023-04-06T23:57:26.019Z,4.64
2023-04-06T23:59:53.665Z,4.63
